CheckWX is a tool to help pilots better visualize weather data.  It is not intended as a substitute for an official pre-flight weather briefing.

17:25:41 UTC

LIPX METAR
Verona Villafranca Airport
Verona, Italy
Current

36 mins ago

LIPX 181650Z 23005KT 200V260 CAVOK 28/16 Q1011
Observed
Jul-18 @ 16:50 UTC
Wind
  • 230° at 5 KTS
Visibility
10,000+ meters
Flight Rules
VFR
Cloud Levels
  • Clear skies
Temperature
28°C / 82°F
Dewpoint
16°C / 61°F
Heat Index
28°C / 82°F
Humidity
48%
Altimeter
29.85" Hg
Pressure
1010.92 hPa
Previous

1 hour ago

LIPX 181620Z 23004KT 9999 -RA FEW030 SCT050 27/16 Q1011
Observed
Jul-18 @ 16:20 UTC
Wind
  • 230° at 4 KTS
Visibility
10,000+ meters
Flight Rules
VFR
Conditions
Light Rain
Cloud Levels
  • Few at 3,000' AGL
  • Scattered at 5,000' AGL
Temperature
27°C / 81°F
Dewpoint
16°C / 61°F
Heat Index
28°C / 82°F
Humidity
51%
Altimeter
29.85" Hg
Pressure
1010.92 hPa
Previous

2 hours ago

LIPX 181550Z 18003KT 9999 SCT050 27/16 Q1012
Observed
Jul-18 @ 15:50 UTC
Wind
  • 180° at 3 KTS
Visibility
10,000+ meters
Flight Rules
VFR
Cloud Levels
  • Scattered at 5,000' AGL
Temperature
27°C / 81°F
Dewpoint
16°C / 61°F
Heat Index
28°C / 82°F
Humidity
51%
Altimeter
29.88" Hg
Pressure
1011.92 hPa